createdAt,value
2023-05-21T00:00:21.100Z,10.10
2023-05-21T00:03:31.001Z,9.60
2023-05-21T00:06:39.415Z,11.40
2023-05-21T00:09:25.711Z,7.20
2023-05-21T00:15:18.790Z,9.60
2023-05-21T00:18:17.208Z,11.00
2023-05-21T00:20:56.693Z,11.40
2023-05-21T00:23:30.931Z,11.90
2023-05-21T00:26:23.690Z,13.40
2023-05-21T00:29:06.262Z,13.20
2023-05-21T00:34:58.056Z,11.80
2023-05-21T00:37:34.095Z,11.20
2023-05-21T00:40:27.886Z,9.70
2023-05-21T00:43:15.863Z,10.20
2023-05-21T00:46:10.147Z,11.70
2023-05-21T00:49:09.985Z,9.00
2023-05-21T00:55:02.508Z,8.60
2023-05-21T00:57:44.806Z,8.30
2023-05-21T01:00:24.274Z,11.00
2023-05-21T01:03:32.357Z,11.20
2023-05-21T01:06:03.425Z,10.90
2023-05-21T01:08:41.465Z,9.60
2023-05-21T01:14:37.224Z,11.20
2023-05-21T01:17:28.787Z,13.90
2023-05-21T01:26:35.955Z,10.20
2023-05-21T01:29:06.801Z,10.80
2023-05-21T01:31:56.314Z,9.30
2023-05-21T01:35:00.768Z,11.50
2023-05-21T01:41:26.547Z,9.30
2023-05-21T01:44:29.578Z,12.30
2023-05-21T01:50:38.967Z,9.60
2023-05-21T01:53:28.067Z,12.20
2023-05-21T01:56:35.216Z,10.70
2023-05-21T01:59:08.859Z,10.40
2023-05-21T02:02:01.649Z,10.10
2023-05-21T02:11:48.952Z,9.80
2023-05-21T02:14:50.058Z,9.80
2023-05-21T02:17:58.098Z,11.30
2023-05-21T02:20:37.564Z,10.40
2023-05-21T02:23:09.084Z,10.70
2023-05-21T02:25:42.706Z,10.00
2023-05-21T02:28:39.411Z,11.10
2023-05-21T02:31:22.971Z,11.10
2023-05-21T02:34:14.295Z,12.70
2023-05-21T02:39:47.175Z,12.80
2023-05-21T02:48:39.948Z,11.00
2023-05-21T02:51:33.588Z,15.70
2023-05-21T02:54:08.097Z,12.40
2023-05-21T02:56:59.645Z,12.60
2023-05-21T02:59:53.448Z,10.70
2023-05-21T03:02:38.971Z,14.10
2023-05-21T03:05:19.571Z,12.70
2023-05-21T03:10:36.605Z,11.60
2023-05-21T03:16:12.496Z,13.20
2023-05-21T03:19:30.178Z,14.60
2023-05-21T03:22:22.351Z,13.00
2023-05-21T03:25:13.599Z,10.80
2023-05-21T03:28:17.454Z,12.00
2023-05-21T03:34:00.799Z,11.80
2023-05-21T03:36:56.189Z,10.10
2023-05-21T03:42:54.412Z,14.50
2023-05-21T03:45:52.967Z,11.00
2023-05-21T03:49:05.732Z,14.10
2023-05-21T03:51:55.355Z,9.30
2023-05-21T03:54:46.160Z,12.60
2023-05-21T03:57:42.785Z,10.60
2023-05-21T04:00:37.401Z,9.40
2023-05-21T04:03:48.162Z,13.00
2023-05-21T04:07:02.202Z,11.20
2023-05-21T04:12:57.369Z,13.50
2023-05-21T04:21:51.991Z,10.80
2023-05-21T04:24:38.495Z,12.90
2023-05-21T04:30:21.946Z,12.50
2023-05-21T04:32:53.344Z,11.60
2023-05-21T04:35:42.716Z,11.80
2023-05-21T04:38:21.749Z,11.90
2023-05-21T04:41:10.500Z,12.40
2023-05-21T04:43:43.717Z,13.00
2023-05-21T04:46:30.750Z,8.50
2023-05-21T04:49:07.602Z,9.50
2023-05-21T04:51:38.672Z,13.50
2023-05-21T04:54:12.215Z,14.30
2023-05-21T04:59:35.901Z,11.20
2023-05-21T05:02:03.972Z,12.80
2023-05-21T05:04:48.215Z,14.40
2023-05-21T05:07:23.657Z,13.70
2023-05-21T05:09:59.782Z,15.50
2023-05-21T05:15:32.205Z,11.20
2023-05-21T05:18:36.689Z,13.00
2023-05-21T05:21:07.560Z,11.20
2023-05-21T05:23:54.111Z,11.10
2023-05-21T05:26:25.186Z,15.70
2023-05-21T05:29:15.807Z,14.30
2023-05-21T05:31:46.275Z,11.80
2023-05-21T05:34:45.284Z,13.40
2023-05-21T05:37:13.525Z,10.00
2023-05-21T05:40:00.099Z,11.50
2023-05-21T05:44:58.957Z,10.20
2023-05-21T05:47:33.427Z,11.50
2023-05-21T05:53:16.363Z,8.70
2023-05-21T05:55:50.000Z,9.50
2023-05-21T05:58:17.819Z,11.80
2023-05-21T06:00:45.808Z,10.40
2023-05-21T06:03:32.156Z,11.90
2023-05-21T06:06:00.214Z,9.20
2023-05-21T06:08:46.432Z,10.40
2023-05-21T06:16:38.865Z,8.60
2023-05-21T06:19:27.985Z,8.60
2023-05-21T06:21:55.765Z,10.10
2023-05-21T06:30:13.927Z,10.10
2023-05-21T06:32:42.897Z,10.20
2023-05-21T06:35:28.980Z,10.40
2023-05-21T06:37:56.781Z,8.70
2023-05-21T06:41:01.776Z,12.00
2023-05-21T06:43:29.538Z,11.30
2023-05-21T06:45:57.168Z,12.40
2023-05-21T06:48:28.398Z,10.10
2023-05-21T06:50:56.145Z,9.60
2023-05-21T06:53:24.020Z,10.00
2023-05-21T06:55:53.915Z,10.00
2023-05-21T06:58:22.013Z,12.20
2023-05-21T07:01:07.784Z,11.50
2023-05-21T07:03:36.637Z,11.50
2023-05-21T07:06:04.397Z,10.00
2023-05-21T07:08:32.094Z,11.90
2023-05-21T07:11:18.451Z,10.90
2023-05-21T07:16:32.303Z,9.10
2023-05-21T07:18:59.948Z,7.90
2023-05-21T07:22:04.301Z,10.90
2023-05-21T07:24:31.860Z,10.00
2023-05-21T07:27:25.228Z,9.10
2023-05-21T07:29:53.440Z,8.60
2023-05-21T07:32:40.664Z,9.30
2023-05-21T07:35:08.652Z,7.80
2023-05-21T07:37:54.697Z,10.50
2023-05-21T07:40:22.909Z,12.50
2023-05-21T07:42:51.099Z,9.20
2023-05-21T07:45:18.821Z,9.60
2023-05-21T07:47:46.704Z,7.50
2023-05-21T07:50:15.036Z,10.90
2023-05-21T07:52:42.813Z,9.10
2023-05-21T07:55:11.426Z,9.40
2023-05-21T07:57:39.207Z,13.70
2023-05-21T08:00:12.946Z,10.20
2023-05-21T08:02:58.802Z,12.70
2023-05-21T08:05:26.551Z,9.80
2023-05-21T08:08:12.887Z,9.20
2023-05-21T08:10:40.561Z,8.70
2023-05-21T08:13:08.002Z,8.80
2023-05-21T08:15:35.906Z,8.70
2023-05-21T08:18:05.618Z,9.20
2023-05-21T08:20:33.467Z,10.20
2023-05-21T08:23:01.279Z,7.60
2023-05-21T08:25:47.246Z,8.10
2023-05-21T08:28:15.861Z,9.50
2023-05-21T08:31:02.017Z,9.70
2023-05-21T08:33:29.755Z,7.40
2023-05-21T08:35:57.209Z,7.10
2023-05-21T08:38:24.772Z,7.20
2023-05-21T08:40:55.083Z,9.30
2023-05-21T08:43:24.438Z,8.00
2023-05-21T08:45:57.140Z,8.50
2023-05-21T08:48:24.894Z,7.60
2023-05-21T08:50:55.018Z,6.60
2023-05-21T08:53:27.951Z,7.90
2023-05-21T08:55:57.140Z,7.00
2023-05-21T08:58:24.815Z,8.00
2023-05-21T09:00:52.401Z,8.80
2023-05-21T09:03:39.201Z,8.40
2023-05-21T09:06:11.325Z,10.10
2023-05-21T09:09:16.150Z,7.30
2023-05-21T09:11:46.203Z,7.30
2023-05-21T09:14:15.686Z,7.10
2023-05-21T09:16:45.449Z,8.10
2023-05-21T09:19:13.306Z,7.00
2023-05-21T09:21:40.903Z,6.90
2023-05-21T09:24:10.720Z,7.50
2023-05-21T09:26:41.738Z,8.10
2023-05-21T09:29:09.519Z,7.10
2023-05-21T09:32:14.120Z,7.20
2023-05-21T09:34:41.653Z,6.90
2023-05-21T09:37:19.938Z,7.40
2023-05-21T09:39:54.686Z,8.70
2023-05-21T09:42:24.968Z,6.70
2023-05-21T09:44:53.305Z,7.60
2023-05-21T09:47:21.504Z,7.80
2023-05-21T09:50:07.485Z,6.40
2023-05-21T09:55:23.909Z,6.90
2023-05-21T09:57:52.570Z,5.50
2023-05-21T10:03:12.019Z,7.10
2023-05-21T10:05:42.098Z,5.60
2023-05-21T10:08:33.681Z,9.00
2023-05-21T10:11:02.147Z,7.60
2023-05-21T10:13:29.847Z,7.70
2023-05-21T10:16:03.167Z,6.70
2023-05-21T10:18:33.443Z,5.20
2023-05-21T10:21:02.121Z,7.80
2023-05-21T10:23:31.347Z,7.20
2023-05-21T10:26:00.399Z,6.60
2023-05-21T10:28:29.229Z,5.80
2023-05-21T10:30:57.831Z,6.00
2023-05-21T10:33:26.847Z,5.90
2023-05-21T10:39:02.968Z,7.40
2023-05-21T10:47:53.550Z,6.20
2023-05-21T10:50:49.284Z,6.10
2023-05-21T10:56:59.180Z,5.20
2023-05-21T10:59:41.183Z,7.10
2023-05-21T11:02:11.604Z,5.40
2023-05-21T11:04:59.537Z,7.40
2023-05-21T11:08:01.402Z,5.60
2023-05-21T11:10:40.292Z,6.20
2023-05-21T11:13:13.927Z,5.80
2023-05-21T11:15:59.013Z,6.50
2023-05-21T11:21:40.502Z,5.60
2023-05-21T11:27:13.395Z,5.10
2023-05-21T11:30:00.792Z,5.40
2023-05-21T11:32:29.638Z,6.80
2023-05-21T11:35:19.322Z,7.10
2023-05-21T11:37:53.819Z,5.30
2023-05-21T11:40:50.311Z,6.90
2023-05-21T11:43:18.728Z,4.20
2023-05-21T11:46:05.482Z,4.80
2023-05-21T11:48:33.449Z,5.50
2023-05-21T11:51:20.105Z,6.80
2023-05-21T11:53:48.678Z,6.90
2023-05-21T11:59:04.813Z,5.90
2023-05-21T12:01:32.337Z,5.80
2023-05-21T12:04:04.732Z,6.50
2023-05-21T12:06:34.234Z,8.50
2023-05-21T12:09:20.227Z,5.90
2023-05-21T12:11:47.768Z,14.50
2023-05-21T12:14:34.316Z,5.30
2023-05-21T12:17:04.038Z,5.90
2023-05-21T12:22:24.186Z,5.70
2023-05-21T12:27:39.462Z,4.50
2023-05-21T12:30:08.233Z,7.00
2023-05-21T12:32:37.953Z,5.00
2023-05-21T12:35:06.019Z,4.10
2023-05-21T12:37:35.468Z,6.40
2023-05-21T12:40:11.545Z,6.10
2023-05-21T12:42:40.165Z,5.30
2023-05-21T12:45:09.531Z,7.20
2023-05-21T12:47:37.897Z,6.30
2023-05-21T12:50:11.546Z,6.00
2023-05-21T12:52:43.082Z,5.90
2023-05-21T12:55:14.983Z,7.20
2023-05-21T12:57:44.003Z,6.00
2023-05-21T13:02:59.895Z,6.40
2023-05-21T13:05:27.389Z,8.20
2023-05-21T13:07:54.861Z,5.30
2023-05-21T13:10:22.523Z,6.30
2023-05-21T13:12:50.063Z,5.40
2023-05-21T13:15:17.873Z,6.40
2023-05-21T13:17:46.007Z,5.10
2023-05-21T13:23:11.814Z,8.30
2023-05-21T13:25:58.424Z,5.30
2023-05-21T13:28:25.850Z,5.10
2023-05-21T13:30:57.772Z,5.70
2023-05-21T13:33:25.419Z,5.00
2023-05-21T13:36:30.993Z,5.20
2023-05-21T13:38:58.559Z,5.90
2023-05-21T13:41:44.250Z,4.40
2023-05-21T13:44:11.731Z,5.10
2023-05-21T13:47:16.705Z,6.30
2023-05-21T13:49:44.544Z,5.50
2023-05-21T13:52:51.536Z,5.50
2023-05-21T13:55:19.363Z,5.60
2023-05-21T13:58:05.420Z,4.90
2023-05-21T14:00:32.830Z,5.00
2023-05-21T14:03:00.485Z,5.10
2023-05-21T14:05:28.385Z,6.60
2023-05-21T14:07:56.274Z,5.60
2023-05-21T14:10:42.438Z,6.10
2023-05-21T14:13:19.228Z,5.00
2023-05-21T14:16:07.236Z,5.70
2023-05-21T14:18:34.719Z,5.90
2023-05-21T14:21:21.217Z,6.60
2023-05-21T14:23:49.640Z,5.70
2023-05-21T14:26:17.547Z,6.20
2023-05-21T14:28:46.149Z,5.40
2023-05-21T14:31:14.747Z,7.30
2023-05-21T14:34:00.413Z,5.10
2023-05-21T14:36:27.928Z,5.10
2023-05-21T14:41:42.398Z,5.50
2023-05-21T14:44:10.163Z,4.90
2023-05-21T14:46:39.281Z,6.20
2023-05-21T14:49:07.284Z,4.60
2023-05-21T14:51:52.517Z,4.60
2023-05-21T14:54:20.429Z,4.40
2023-05-21T14:56:48.022Z,4.90
2023-05-21T14:59:15.531Z,5.20
2023-05-21T15:02:20.963Z,5.80
2023-05-21T15:04:48.612Z,5.60
2023-05-21T15:07:16.082Z,6.90
2023-05-21T15:09:43.598Z,5.70
2023-05-21T15:12:11.053Z,4.60
2023-05-21T15:14:56.987Z,5.90
2023-05-21T15:17:24.670Z,4.60
2023-05-21T15:20:29.431Z,5.00
2023-05-21T15:23:15.239Z,5.60
2023-05-21T15:25:45.462Z,5.10
2023-05-21T15:28:13.453Z,5.10
2023-05-21T15:30:59.403Z,5.50
2023-05-21T15:33:26.967Z,6.50
2023-05-21T15:35:54.486Z,5.10
2023-05-21T15:38:22.163Z,5.20
2023-05-21T15:40:49.859Z,6.40
2023-05-21T15:43:17.399Z,5.60
2023-05-21T15:45:44.893Z,5.60
2023-05-21T15:51:16.232Z,4.80
2023-05-21T15:54:20.971Z,4.50
2023-05-21T15:56:49.766Z,6.00
2023-05-21T15:59:17.925Z,5.20
2023-05-21T16:04:13.303Z,4.90
2023-05-21T16:06:59.640Z,5.10
2023-05-21T16:09:27.101Z,5.00
2023-05-21T16:12:13.155Z,5.20
2023-05-21T16:14:40.669Z,5.10
2023-05-21T16:17:08.133Z,6.00
2023-05-21T16:19:35.820Z,5.50
2023-05-21T16:22:03.483Z,5.20
2023-05-21T16:24:31.026Z,4.80
2023-05-21T16:26:58.631Z,7.00
2023-05-21T16:29:44.303Z,5.20
2023-05-21T16:34:59.355Z,5.00
2023-05-21T16:37:27.335Z,8.20
2023-05-21T16:40:13.737Z,6.10
2023-05-21T16:42:41.461Z,6.00
2023-05-21T16:45:10.628Z,5.00
2023-05-21T16:47:56.112Z,6.80
2023-05-21T16:50:23.713Z,6.80
2023-05-21T16:52:51.189Z,7.00
2023-05-21T16:55:19.067Z,6.50
2023-05-21T16:57:46.607Z,7.20
2023-05-21T17:00:14.513Z,7.60
2023-05-21T17:02:42.084Z,6.30
2023-05-21T17:05:09.628Z,8.50
2023-05-21T17:07:55.579Z,6.80
2023-05-21T17:11:00.669Z,7.60
2023-05-21T17:13:28.175Z,7.50
2023-05-21T17:18:59.806Z,6.70
2023-05-21T17:21:46.110Z,7.90
2023-05-21T17:24:13.670Z,7.30
2023-05-21T17:26:59.895Z,7.10
2023-05-21T17:29:27.386Z,7.70
2023-05-21T17:31:55.217Z,7.50
2023-05-21T17:34:29.117Z,7.00
2023-05-21T17:36:58.308Z,8.70
2023-05-21T17:39:26.076Z,7.10
2023-05-21T17:41:56.071Z,6.70
2023-05-21T17:47:27.701Z,7.60
2023-05-21T17:49:55.479Z,7.20
2023-05-21T17:52:23.147Z,7.90
2023-05-21T17:54:50.603Z,8.10
2023-05-21T17:57:20.085Z,7.20
2023-05-21T17:59:47.736Z,6.90
2023-05-21T18:02:15.610Z,7.60
2023-05-21T18:04:43.195Z,6.70
2023-05-21T18:07:10.707Z,6.90
2023-05-21T18:09:56.789Z,6.20
2023-05-21T18:12:24.367Z,7.50
2023-05-21T18:14:52.103Z,9.30
2023-05-21T18:17:19.637Z,6.40
2023-05-21T18:19:47.108Z,7.20
2023-05-21T18:22:32.823Z,6.60
2023-05-21T18:25:00.923Z,7.60
2023-05-21T18:27:28.369Z,7.70
2023-05-21T18:29:56.604Z,7.60
2023-05-21T18:35:10.599Z,7.60
2023-05-21T18:37:41.981Z,7.10
2023-05-21T18:40:30.559Z,10.10
2023-05-21T18:42:58.672Z,8.70
2023-05-21T18:45:26.344Z,9.50
2023-05-21T18:47:53.831Z,6.80
2023-05-21T18:50:22.980Z,8.20
2023-05-21T18:53:09.466Z,7.20
2023-05-21T18:55:36.952Z,7.30
2023-05-21T18:58:04.597Z,7.40
2023-05-21T19:00:34.005Z,6.90
2023-05-21T19:03:39.139Z,7.40
2023-05-21T19:06:06.630Z,7.60
2023-05-21T19:08:34.171Z,6.80
2023-05-21T19:11:03.019Z,8.40
2023-05-21T19:13:30.566Z,6.80
2023-05-21T19:16:16.540Z,7.40
2023-05-21T19:21:31.083Z,8.30
2023-05-21T19:23:59.191Z,7.90
2023-05-21T19:28:55.316Z,6.80
2023-05-21T19:33:56.457Z,7.90
2023-05-21T19:36:24.320Z,8.10
2023-05-21T19:38:52.099Z,9.10
2023-05-21T19:41:21.927Z,7.40
2023-05-21T19:46:41.291Z,7.30
2023-05-21T19:52:17.691Z,8.40
2023-05-21T19:55:03.730Z,7.70
2023-05-21T19:57:32.859Z,6.90
2023-05-21T20:03:06.776Z,7.80
2023-05-21T20:05:34.376Z,8.40
2023-05-21T20:08:02.200Z,7.00
2023-05-21T20:10:54.041Z,8.60
2023-05-21T20:15:49.841Z,8.80
2023-05-21T20:18:19.964Z,9.10
2023-05-21T20:20:47.724Z,8.10
2023-05-21T20:26:19.355Z,6.10
2023-05-21T20:28:47.011Z,7.20
2023-05-21T20:31:14.784Z,7.50
2023-05-21T20:33:46.207Z,7.30
2023-05-21T20:36:15.049Z,7.90
2023-05-21T20:38:43.102Z,6.70
2023-05-21T20:41:10.890Z,8.10
2023-05-21T20:43:39.060Z,6.60
2023-05-21T20:46:07.380Z,6.00
2023-05-21T20:48:53.527Z,9.30
2023-05-21T20:54:09.211Z,6.30
2023-05-21T20:56:41.930Z,6.90
2023-05-21T20:59:28.896Z,7.90
2023-05-21T21:01:57.065Z,6.50
2023-05-21T21:04:25.825Z,7.30
2023-05-21T21:06:53.690Z,7.10
2023-05-21T21:09:21.138Z,6.80
2023-05-21T21:12:24.116Z,5.40
2023-05-21T21:15:12.835Z,8.70
2023-05-21T21:17:40.836Z,6.90
2023-05-21T21:20:10.349Z,5.70
2023-05-21T21:22:38.454Z,7.00
2023-05-21T21:25:06.474Z,5.50
2023-05-21T21:27:34.476Z,6.80
2023-05-21T21:30:04.352Z,5.70
2023-05-21T21:32:32.045Z,7.20
2023-05-21T21:35:19.704Z,6.60
2023-05-21T21:37:47.250Z,7.60
2023-05-21T21:43:00.398Z,6.40
2023-05-21T21:46:05.178Z,7.60
2023-05-21T21:48:34.246Z,7.30
2023-05-21T21:51:21.291Z,7.20
2023-05-21T21:53:50.777Z,6.10
2023-05-21T21:56:19.271Z,7.80
2023-05-21T21:58:46.895Z,6.80
2023-05-21T22:01:17.119Z,7.20
2023-05-21T22:04:03.104Z,6.30
2023-05-21T22:06:48.513Z,5.90
2023-05-21T22:09:17.337Z,6.40
2023-05-21T22:11:45.048Z,8.00
2023-05-21T22:14:12.615Z,6.80
2023-05-21T22:16:41.250Z,7.20
2023-05-21T22:19:09.961Z,6.80
2023-05-21T22:21:37.922Z,6.80
2023-05-21T22:24:05.947Z,6.60
2023-05-21T22:26:33.975Z,5.80
2023-05-21T22:29:19.998Z,6.70
2023-05-21T22:31:47.692Z,8.60
2023-05-21T22:34:15.451Z,6.60
2023-05-21T22:36:44.736Z,7.20
2023-05-21T22:39:12.333Z,7.20
2023-05-21T22:41:42.864Z,6.60
2023-05-21T22:44:10.496Z,5.80
2023-05-21T22:46:38.846Z,6.70
2023-05-21T22:49:06.949Z,8.90
2023-05-21T22:51:35.937Z,8.30
2023-05-21T22:54:22.434Z,6.50
2023-05-21T22:56:52.993Z,7.00
2023-05-21T22:59:39.345Z,6.80
2023-05-21T23:02:07.736Z,7.30
2023-05-21T23:04:43.879Z,7.10
2023-05-21T23:07:39.629Z,7.70
2023-05-21T23:10:27.432Z,7.40
2023-05-21T23:12:55.182Z,8.90
2023-05-21T23:15:43.402Z,7.40
2023-05-21T23:18:14.452Z,7.30
2023-05-21T23:21:01.326Z,7.60
2023-05-21T23:23:29.222Z,9.30
2023-05-21T23:26:15.677Z,6.10
2023-05-21T23:28:43.373Z,8.80
2023-05-21T23:31:47.912Z,7.10
2023-05-21T23:34:18.290Z,7.60
2023-05-21T23:39:37.928Z,5.40
2023-05-21T23:42:06.605Z,6.80
2023-05-21T23:44:57.707Z,8.70
2023-05-21T23:47:25.597Z,8.00
2023-05-21T23:50:12.312Z,7.70
2023-05-21T23:55:50.163Z,7.50
2023-05-21T23:58:39.830Z,8.00
